createdAt,value
2023-03-26T00:01:39.856Z,88.16
2023-03-26T00:04:07.076Z,86.93
2023-03-26T00:06:38.402Z,86.38
2023-03-26T00:09:06.883Z,85.66
2023-03-26T00:11:34.232Z,85.53
2023-03-26T00:14:02.127Z,85.78
2023-03-26T00:16:30.672Z,86.06
2023-03-26T00:18:58.193Z,85.54
2023-03-26T00:21:27.347Z,85.52
2023-03-26T00:23:59.182Z,85.77
2023-03-26T00:26:30.699Z,86.17
2023-03-26T00:28:59.588Z,84.62
2023-03-26T00:31:26.884Z,84.61
2023-03-26T00:33:55.010Z,85.22
2023-03-26T00:36:22.683Z,85.37
2023-03-26T00:38:52.338Z,85.05
2023-03-26T00:41:24.938Z,85.56
2023-03-26T00:43:55.697Z,86.11
2023-03-26T00:46:23.060Z,86.32
2023-03-26T00:48:50.244Z,85.00
2023-03-26T00:51:18.601Z,83.90
2023-03-26T00:53:46.884Z,83.58
2023-03-26T00:56:14.049Z,83.10
2023-03-26T00:58:41.601Z,82.15
2023-03-26T01:01:10.467Z,81.36
2023-03-26T01:03:38.071Z,82.51
2023-03-26T01:06:09.528Z,84.32
2023-03-26T01:08:41.230Z,84.07
2023-03-26T01:11:14.251Z,82.33
2023-03-26T01:13:46.080Z,83.21
2023-03-26T01:16:25.831Z,83.29
2023-03-26T01:18:53.513Z,85.52
2023-03-26T01:21:22.701Z,84.61
2023-03-26T01:23:59.205Z,84.66
2023-03-26T01:26:35.574Z,83.80
2023-03-26T01:29:03.967Z,83.29
2023-03-26T01:31:36.523Z,84.65
2023-03-26T01:34:06.499Z,83.26
2023-03-26T01:36:44.662Z,83.48
2023-03-26T01:39:18.097Z,83.75
2023-03-26T01:41:46.980Z,83.34
2023-03-26T01:44:13.899Z,82.75
2023-03-26T01:46:41.922Z,82.54
2023-03-26T01:49:14.876Z,82.12
2023-03-26T01:51:42.434Z,81.93
2023-03-26T01:54:18.194Z,82.42
2023-03-26T01:56:47.928Z,82.32
2023-03-26T01:59:26.815Z,81.60
2023-03-26T02:02:00.613Z,81.89
2023-03-26T02:04:45.350Z,81.23
2023-03-26T02:07:17.555Z,80.08
2023-03-26T02:09:50.128Z,81.25
2023-03-26T02:12:17.384Z,81.38
2023-03-26T02:14:45.562Z,81.71
2023-03-26T02:17:12.714Z,82.58
2023-03-26T02:19:42.736Z,82.55
2023-03-26T02:22:16.173Z,82.68
2023-03-26T02:24:44.461Z,82.84
2023-03-26T02:27:11.873Z,82.87
2023-03-26T02:29:40.220Z,82.47
2023-03-26T02:32:12.514Z,82.59
2023-03-26T02:34:39.955Z,82.54
2023-03-26T02:37:06.936Z,82.68
2023-03-26T02:39:35.022Z,82.77
2023-03-26T02:42:07.338Z,82.43
2023-03-26T02:44:39.732Z,82.77
2023-03-26T02:47:29.159Z,83.79
2023-03-26T02:50:18.901Z,83.79
2023-03-26T02:53:02.799Z,84.21
2023-03-26T02:55:30.713Z,84.18
2023-03-26T02:58:00.089Z,84.45
2023-03-26T03:00:35.470Z,84.69
2023-03-26T03:03:23.844Z,84.99
2023-03-26T03:05:59.555Z,84.90
2023-03-26T03:08:33.983Z,85.01
2023-03-26T03:11:11.360Z,84.95
2023-03-26T03:13:44.246Z,84.82
2023-03-26T03:16:11.635Z,84.73
2023-03-26T03:18:38.656Z,84.54
2023-03-26T03:21:06.843Z,84.70
2023-03-26T03:23:33.893Z,84.50
2023-03-26T03:26:21.109Z,84.12
2023-03-26T03:28:52.160Z,83.58
2023-03-26T03:31:19.144Z,84.13
2023-03-26T03:33:46.105Z,83.80
2023-03-26T03:36:20.983Z,82.41
2023-03-26T03:38:54.715Z,83.64
2023-03-26T03:41:22.279Z,83.35
2023-03-26T03:43:49.613Z,82.89
2023-03-26T03:46:20.698Z,82.24
2023-03-26T03:48:49.463Z,83.77
2023-03-26T03:51:23.132Z,84.52
2023-03-26T03:53:57.065Z,83.93
2023-03-26T03:56:49.834Z,84.64
2023-03-26T03:59:20.336Z,84.80
2023-03-26T04:01:48.311Z,84.84
2023-03-26T04:04:24.204Z,84.74
2023-03-26T04:07:05.644Z,84.58
2023-03-26T04:09:55.860Z,84.70
2023-03-26T04:12:23.185Z,84.81
2023-03-26T04:15:00.095Z,85.02
2023-03-26T04:17:27.062Z,84.89
2023-03-26T04:19:55.496Z,85.06
2023-03-26T04:22:35.884Z,85.08
2023-03-26T04:25:05.120Z,85.12
2023-03-26T04:27:41.083Z,84.81
2023-03-26T04:30:20.059Z,84.66
2023-03-26T04:32:51.488Z,84.61
2023-03-26T04:35:19.080Z,84.64
2023-03-26T04:37:52.373Z,84.82
2023-03-26T04:40:24.416Z,84.46
2023-03-26T04:43:12.450Z,84.18
2023-03-26T04:46:04.996Z,84.21
2023-03-26T04:48:38.282Z,82.89
2023-03-26T04:51:09.427Z,82.82
2023-03-26T04:53:36.681Z,81.81
2023-03-26T04:56:28.207Z,81.03
2023-03-26T04:59:14.937Z,81.38
2023-03-26T05:01:45.343Z,81.76
2023-03-26T05:04:13.465Z,81.29
2023-03-26T05:06:41.286Z,81.77
2023-03-26T05:09:16.203Z,82.04
2023-03-26T05:12:12.323Z,82.18
2023-03-26T05:14:52.675Z,82.43
2023-03-26T05:17:30.558Z,82.63
2023-03-26T05:19:57.629Z,82.24
2023-03-26T05:22:25.396Z,82.24
2023-03-26T05:25:17.010Z,82.33
2023-03-26T05:27:44.788Z,82.34
2023-03-26T05:30:13.948Z,82.03
2023-03-26T05:32:43.707Z,82.27
2023-03-26T05:35:12.282Z,82.56
2023-03-26T05:37:39.455Z,82.39
2023-03-26T05:40:11.227Z,82.40
2023-03-26T05:42:45.704Z,82.15
2023-03-26T05:45:41.761Z,81.64
2023-03-26T05:48:25.379Z,81.89
2023-03-26T05:50:54.594Z,82.02
2023-03-26T05:53:22.749Z,81.49
2023-03-26T05:56:10.376Z,81.20
2023-03-26T05:58:56.669Z,81.43
2023-03-26T06:01:44.603Z,81.25
2023-03-26T06:04:31.571Z,79.86
2023-03-26T06:07:22.185Z,80.31
2023-03-26T06:10:10.324Z,80.43
2023-03-26T06:12:37.279Z,79.67
2023-03-26T06:15:05.773Z,79.45
2023-03-26T06:17:53.623Z,78.57
2023-03-26T06:20:35.792Z,78.51
2023-03-26T06:23:08.871Z,78.54
2023-03-26T06:26:01.717Z,78.76
2023-03-26T06:28:41.154Z,78.84
2023-03-26T06:31:28.285Z,78.38
2023-03-26T06:34:11.997Z,77.97
2023-03-26T06:36:38.955Z,77.14
2023-03-26T06:39:07.850Z,77.48
2023-03-26T06:41:37.351Z,78.69
2023-03-26T06:44:24.720Z,79.40
2023-03-26T06:47:26.738Z,78.61
2023-03-26T06:50:12.199Z,77.21
2023-03-26T06:52:57.417Z,76.87
2023-03-26T06:55:35.518Z,77.11
2023-03-26T06:58:21.449Z,76.91
2023-03-26T07:01:07.158Z,77.31
2023-03-26T07:03:52.830Z,77.35
2023-03-26T07:06:38.582Z,75.26
2023-03-26T07:09:25.894Z,75.13
2023-03-26T07:12:11.573Z,75.21
2023-03-26T07:15:13.833Z,75.58
2023-03-26T07:18:04.239Z,76.47
2023-03-26T07:20:34.443Z,76.57
2023-03-26T07:23:01.902Z,76.48
2023-03-26T07:25:53.318Z,76.04
2023-03-26T07:29:05.119Z,75.08
2023-03-26T07:32:09.121Z,75.27
2023-03-26T07:34:54.154Z,75.97
2023-03-26T07:37:58.960Z,75.45
2023-03-26T07:41:03.287Z,74.70
2023-03-26T07:44:07.668Z,73.49
2023-03-26T07:47:14.319Z,74.07
2023-03-26T07:49:58.886Z,74.26
2023-03-26T07:52:51.410Z,74.16
2023-03-26T07:55:53.864Z,73.57
2023-03-26T07:58:57.962Z,73.78
2023-03-26T08:01:47.836Z,73.74
2023-03-26T08:04:40.828Z,73.98
2023-03-26T08:07:52.668Z,74.02
2023-03-26T08:10:31.181Z,74.58
2023-03-26T08:13:22.185Z,75.14
2023-03-26T08:15:53.054Z,75.13
2023-03-26T08:18:20.059Z,75.13
2023-03-26T08:20:53.098Z,75.62
2023-03-26T08:23:27.405Z,74.81
2023-03-26T08:26:03.832Z,72.34
2023-03-26T08:28:45.522Z,73.07
2023-03-26T08:31:13.220Z,71.83
2023-03-26T08:33:40.444Z,69.77
2023-03-26T08:36:09.166Z,71.38
2023-03-26T08:38:36.094Z,70.77
2023-03-26T08:41:12.143Z,69.66
2023-03-26T08:43:51.576Z,69.42
2023-03-26T08:46:25.526Z,67.14
2023-03-26T08:49:01.060Z,68.93
2023-03-26T08:51:27.896Z,68.23
2023-03-26T08:53:54.806Z,68.29
2023-03-26T08:56:40.779Z,66.97
2023-03-26T08:59:16.402Z,67.26
2023-03-26T09:01:45.017Z,68.06
2023-03-26T09:04:21.076Z,67.94
2023-03-26T09:06:50.768Z,67.09
2023-03-26T09:09:36.391Z,64.41
2023-03-26T09:12:23.310Z,67.27
2023-03-26T09:14:57.380Z,65.80
2023-03-26T09:17:36.216Z,64.14
2023-03-26T09:20:24.523Z,62.46
2023-03-26T09:23:09.609Z,59.86
2023-03-26T09:25:41.015Z,60.19
2023-03-26T09:28:26.298Z,57.83
2023-03-26T09:30:53.511Z,56.08
2023-03-26T09:33:39.057Z,52.11
2023-03-26T09:36:21.170Z,52.62
2023-03-26T09:39:06.876Z,50.78
2023-03-26T09:41:58.874Z,48.71
2023-03-26T09:44:42.520Z,47.46
2023-03-26T09:47:19.234Z,48.78
2023-03-26T09:49:46.088Z,48.64
2023-03-26T09:52:22.590Z,50.07
2023-03-26T09:54:58.783Z,53.52
2023-03-26T09:57:39.221Z,48.75
2023-03-26T10:00:06.932Z,54.69
2023-03-26T10:02:46.719Z,51.51
2023-03-26T10:05:27.446Z,52.41
2023-03-26T10:08:19.773Z,48.75
2023-03-26T10:10:52.827Z,49.33
2023-03-26T10:13:22.835Z,49.25
2023-03-26T10:15:52.483Z,50.01
2023-03-26T10:18:27.938Z,50.34
2023-03-26T10:21:01.204Z,51.53
2023-03-26T10:23:32.174Z,52.06
2023-03-26T10:26:08.283Z,48.10
2023-03-26T10:28:35.811Z,46.62
2023-03-26T10:31:14.737Z,48.93
2023-03-26T10:33:51.717Z,49.18
2023-03-26T10:36:18.514Z,49.84
2023-03-26T10:38:57.484Z,49.42
2023-03-26T10:41:45.599Z,48.35
2023-03-26T10:44:31.051Z,50.52
2023-03-26T10:47:10.044Z,48.33
2023-03-26T10:49:39.963Z,46.76
2023-03-26T10:52:15.460Z,49.43
2023-03-26T10:54:48.768Z,48.49
2023-03-26T10:57:23.926Z,49.21
2023-03-26T10:59:53.722Z,48.20
2023-03-26T11:02:30.213Z,48.03
2023-03-26T11:05:16.548Z,48.43
2023-03-26T11:07:51.272Z,49.77
2023-03-26T11:10:17.979Z,49.00
2023-03-26T11:12:54.779Z,48.15
2023-03-26T11:15:24.624Z,46.66
2023-03-26T11:18:03.677Z,47.51
2023-03-26T11:20:43.509Z,46.19
2023-03-26T11:23:32.557Z,46.98
2023-03-26T11:25:59.421Z,46.66
2023-03-26T11:28:35.991Z,47.08
2023-03-26T11:31:38.485Z,46.28
2023-03-26T11:34:10.680Z,45.30
2023-03-26T11:36:40.563Z,46.02
2023-03-26T11:39:13.204Z,45.88
2023-03-26T11:41:40.010Z,43.72
2023-03-26T11:44:20.738Z,45.65
2023-03-26T11:46:48.747Z,45.48
2023-03-26T11:49:17.145Z,44.58
2023-03-26T11:51:46.982Z,43.63
2023-03-26T11:54:14.651Z,46.30
2023-03-26T11:57:05.266Z,46.68
2023-03-26T11:59:41.937Z,46.36
2023-03-26T12:02:23.758Z,46.30
2023-03-26T12:04:54.730Z,45.03
2023-03-26T12:07:21.613Z,44.71
2023-03-26T12:10:18.331Z,44.36
2023-03-26T12:12:47.025Z,44.45
2023-03-26T12:15:18.594Z,43.69
2023-03-26T12:17:46.507Z,43.53
2023-03-26T12:20:24.344Z,43.93
2023-03-26T12:23:14.099Z,43.86
2023-03-26T12:25:40.858Z,43.96
2023-03-26T12:28:14.073Z,45.32
2023-03-26T12:30:41.809Z,46.26
2023-03-26T12:33:13.744Z,46.19
2023-03-26T12:35:40.914Z,46.63
2023-03-26T12:38:13.956Z,47.15
2023-03-26T12:40:42.639Z,48.06
2023-03-26T12:44:46.165Z,47.93
2023-03-26T12:47:59.419Z,48.15
2023-03-26T12:49:13.484Z,48.66
2023-03-26T12:51:58.019Z,48.91
2023-03-26T12:54:44.222Z,49.09
2023-03-26T12:57:21.889Z,49.45
2023-03-26T12:59:57.839Z,50.12
2023-03-26T13:02:32.161Z,49.89
2023-03-26T13:05:05.546Z,49.79
2023-03-26T13:07:45.261Z,50.24
2023-03-26T13:10:35.603Z,49.72
2023-03-26T13:13:21.213Z,49.33
2023-03-26T13:15:52.701Z,50.58
2023-03-26T13:18:37.051Z,51.54
2023-03-26T13:21:22.292Z,50.16
2023-03-26T13:24:07.742Z,49.45
2023-03-26T13:26:52.830Z,49.30
2023-03-26T13:29:34.795Z,50.04
2023-03-26T13:32:05.353Z,48.44
2023-03-26T13:34:33.000Z,48.76
2023-03-26T13:37:03.825Z,49.80
2023-03-26T13:39:41.206Z,50.23
2023-03-26T13:42:07.970Z,51.11
2023-03-26T13:44:40.891Z,51.65
2023-03-26T13:47:14.857Z,51.34
2023-03-26T13:49:54.878Z,48.98
2023-03-26T13:52:24.635Z,49.55
2023-03-26T13:55:13.315Z,48.79
2023-03-26T13:57:45.977Z,48.62
2023-03-26T14:00:21.303Z,47.41
2023-03-26T14:03:03.906Z,46.08
2023-03-26T14:05:34.888Z,46.35
2023-03-26T14:08:22.176Z,41.00
2023-03-26T14:10:53.434Z,39.30
2023-03-26T14:13:23.373Z,40.23
2023-03-26T14:15:54.749Z,40.95
2023-03-26T14:18:40.288Z,42.30
2023-03-26T14:21:12.727Z,40.90
2023-03-26T14:23:57.243Z,41.61
2023-03-26T14:26:42.960Z,41.18
2023-03-26T14:29:09.740Z,42.23
2023-03-26T14:31:42.823Z,43.01
2023-03-26T14:34:21.826Z,42.91
2023-03-26T14:36:59.142Z,42.81
2023-03-26T14:39:47.614Z,43.22
2023-03-26T14:42:32.569Z,43.96
2023-03-26T14:44:59.284Z,44.66
2023-03-26T14:47:26.360Z,44.56
2023-03-26T14:50:08.429Z,44.89
2023-03-26T14:52:36.529Z,44.19
2023-03-26T14:55:10.446Z,44.00
2023-03-26T14:57:52.836Z,43.12
2023-03-26T15:00:20.375Z,42.58
2023-03-26T15:03:07.508Z,41.83
2023-03-26T15:05:47.308Z,40.78
2023-03-26T15:08:34.454Z,40.10
2023-03-26T15:11:20.408Z,39.26
2023-03-26T15:14:06.078Z,39.16
2023-03-26T15:16:58.642Z,38.55
2023-03-26T15:19:28.449Z,38.56
2023-03-26T15:22:26.408Z,39.85
2023-03-26T15:24:53.252Z,41.01
2023-03-26T15:27:36.705Z,42.43
2023-03-26T15:30:24.393Z,42.60
2023-03-26T15:33:00.269Z,43.26
2023-03-26T15:35:45.645Z,43.50
2023-03-26T15:38:15.473Z,43.93
2023-03-26T15:40:45.069Z,44.63
2023-03-26T15:43:16.226Z,44.65
2023-03-26T15:46:02.313Z,44.74
2023-03-26T15:48:29.630Z,44.75
2023-03-26T15:51:17.816Z,44.57
2023-03-26T15:54:03.541Z,43.79
2023-03-26T15:56:53.748Z,43.81
2023-03-26T15:59:37.666Z,43.61
2023-03-26T16:02:04.513Z,43.33
2023-03-26T16:04:41.217Z,43.33
2023-03-26T16:07:21.270Z,42.76
2023-03-26T16:10:20.333Z,41.95
2023-03-26T16:12:47.140Z,42.33
2023-03-26T16:15:31.640Z,42.47
2023-03-26T16:18:04.760Z,43.90
2023-03-26T16:20:33.933Z,43.82
2023-03-26T16:23:03.973Z,43.78
2023-03-26T16:25:34.947Z,44.30
2023-03-26T16:28:11.052Z,44.51
2023-03-26T16:30:38.556Z,44.95
2023-03-26T16:33:13.432Z,45.46
2023-03-26T16:36:13.609Z,45.79
2023-03-26T16:38:49.836Z,46.18
2023-03-26T16:41:18.586Z,47.04
2023-03-26T16:43:54.771Z,47.26
2023-03-26T16:46:35.999Z,47.66
2023-03-26T16:49:24.099Z,47.86
2023-03-26T16:51:50.952Z,48.19
2023-03-26T16:54:26.866Z,48.12
2023-03-26T16:57:00.688Z,48.01
2023-03-26T16:59:46.348Z,48.33
2023-03-26T17:02:51.927Z,49.11
2023-03-26T17:05:25.216Z,50.63
2023-03-26T17:08:18.756Z,51.65
2023-03-26T17:11:19.211Z,52.32
2023-03-26T17:14:09.017Z,52.34
2023-03-26T17:16:36.029Z,52.87
2023-03-26T17:19:06.088Z,53.28
2023-03-26T17:21:45.881Z,53.99
2023-03-26T17:24:23.901Z,54.12
2023-03-26T17:27:21.515Z,54.44
2023-03-26T17:29:57.471Z,54.68
2023-03-26T17:32:24.834Z,55.76
2023-03-26T17:34:51.612Z,57.10
2023-03-26T17:37:21.088Z,57.16
2023-03-26T17:39:50.661Z,57.28
2023-03-26T17:42:24.514Z,57.16
2023-03-26T17:44:52.679Z,57.33
2023-03-26T17:47:25.946Z,58.18
2023-03-26T17:50:13.370Z,58.36
2023-03-26T17:52:47.749Z,58.62
2023-03-26T17:55:17.557Z,58.70
2023-03-26T17:57:47.385Z,59.43
2023-03-26T18:00:26.387Z,59.77
2023-03-26T18:03:16.492Z,60.46
2023-03-26T18:05:43.574Z,60.83
2023-03-26T18:08:19.511Z,60.98
2023-03-26T18:11:09.372Z,61.32
2023-03-26T18:14:05.744Z,61.24
2023-03-26T18:16:37.030Z,61.41
2023-03-26T18:19:17.167Z,61.33
2023-03-26T18:21:49.643Z,62.75
2023-03-26T18:24:25.158Z,62.21
2023-03-26T18:26:54.913Z,62.34
2023-03-26T18:29:24.810Z,62.43
2023-03-26T18:32:02.337Z,62.63
2023-03-26T18:34:31.378Z,62.86
2023-03-26T18:37:07.973Z,62.99
2023-03-26T18:39:35.123Z,62.80
2023-03-26T18:42:01.968Z,62.72
2023-03-26T18:44:28.811Z,63.27
2023-03-26T18:46:56.633Z,63.76
2023-03-26T18:49:25.423Z,64.14
2023-03-26T18:51:57.225Z,63.94
2023-03-26T18:54:30.285Z,64.20
2023-03-26T18:57:15.247Z,64.04
2023-03-26T18:59:44.797Z,64.04
2023-03-26T19:02:15.868Z,63.79
2023-03-26T19:04:46.082Z,63.77
2023-03-26T19:07:15.538Z,63.05
2023-03-26T19:09:42.947Z,62.80
2023-03-26T19:12:23.491Z,63.42
2023-03-26T19:14:52.983Z,63.15
2023-03-26T19:17:20.663Z,63.56
2023-03-26T19:19:49.027Z,63.24
2023-03-26T19:22:16.306Z,63.56
2023-03-26T19:24:43.400Z,65.14
2023-03-26T19:27:10.870Z,67.12
2023-03-26T19:29:37.695Z,67.18
2023-03-26T19:32:05.937Z,66.22
2023-03-26T19:34:39.492Z,65.47
2023-03-26T19:37:17.405Z,65.59
2023-03-26T19:39:44.228Z,65.53
2023-03-26T19:42:17.025Z,66.06
2023-03-26T19:44:44.246Z,65.28
2023-03-26T19:47:15.892Z,65.13
2023-03-26T19:49:53.736Z,64.02
2023-03-26T19:52:24.929Z,63.96
2023-03-26T19:55:00.124Z,64.81
2023-03-26T19:57:28.771Z,64.76
2023-03-26T19:59:56.064Z,64.53
2023-03-26T20:02:22.926Z,64.97
2023-03-26T20:04:49.971Z,64.92
2023-03-26T20:07:18.351Z,64.86
2023-03-26T20:09:45.688Z,64.53
2023-03-26T20:12:12.928Z,64.92
2023-03-26T20:14:40.386Z,64.86
2023-03-26T20:17:14.168Z,64.13
2023-03-26T20:19:40.994Z,64.51
2023-03-26T20:22:14.922Z,64.27
2023-03-26T20:24:44.288Z,64.27
2023-03-26T20:27:14.390Z,64.48
2023-03-26T20:29:41.763Z,64.21
2023-03-26T20:32:17.364Z,64.43
2023-03-26T20:34:45.173Z,64.41
2023-03-26T20:37:11.900Z,65.38
2023-03-26T20:39:39.176Z,66.10
2023-03-26T20:42:06.772Z,65.61
2023-03-26T20:44:33.686Z,65.76
2023-03-26T20:47:00.774Z,65.57
2023-03-26T20:49:29.157Z,65.19
2023-03-26T20:51:57.015Z,65.13
2023-03-26T20:54:25.118Z,65.00
2023-03-26T20:56:53.022Z,65.03
2023-03-26T20:59:21.580Z,65.39
2023-03-26T21:01:49.612Z,65.64
2023-03-26T21:04:16.966Z,66.65
2023-03-26T21:06:43.860Z,68.09
2023-03-26T21:09:15.373Z,69.02
2023-03-26T21:11:55.161Z,68.30
2023-03-26T21:14:24.157Z,67.43
2023-03-26T21:16:52.064Z,67.61
2023-03-26T21:19:19.762Z,67.32
2023-03-26T21:21:52.577Z,67.21
2023-03-26T21:24:32.628Z,66.97
2023-03-26T21:27:12.127Z,67.37
2023-03-26T21:29:38.996Z,68.02
2023-03-26T21:32:06.049Z,68.26
2023-03-26T21:34:33.539Z,67.97
2023-03-26T21:37:01.101Z,68.02
2023-03-26T21:39:28.578Z,68.77
2023-03-26T21:42:04.797Z,68.59
2023-03-26T21:44:33.036Z,68.42
2023-03-26T21:47:00.328Z,68.76
2023-03-26T21:49:27.691Z,68.63
2023-03-26T21:51:54.632Z,68.87
2023-03-26T21:54:28.991Z,69.72
2023-03-26T21:57:02.015Z,68.91
2023-03-26T21:59:36.203Z,68.70
2023-03-26T22:02:10.398Z,68.61
2023-03-26T22:04:56.877Z,68.55
2023-03-26T22:07:32.576Z,69.28
2023-03-26T22:09:59.473Z,69.49
2023-03-26T22:12:26.255Z,69.40
2023-03-26T22:14:53.029Z,69.56
2023-03-26T22:17:20.127Z,69.26
2023-03-26T22:19:46.950Z,69.45
2023-03-26T22:22:14.393Z,69.46
2023-03-26T22:24:41.740Z,68.92
2023-03-26T22:27:08.572Z,69.03
2023-03-26T22:29:35.908Z,69.22
2023-03-26T22:32:03.264Z,69.36
2023-03-26T22:34:31.170Z,68.65
2023-03-26T22:36:58.031Z,68.36
2023-03-26T22:39:25.410Z,68.16
2023-03-26T22:41:52.366Z,68.57
2023-03-26T22:44:20.567Z,68.54
2023-03-26T22:46:50.575Z,68.43
2023-03-26T22:49:17.626Z,68.11
2023-03-26T22:51:44.683Z,66.94
2023-03-26T22:54:11.733Z,66.89
2023-03-26T22:56:38.727Z,68.26
2023-03-26T22:59:05.614Z,67.70
2023-03-26T23:01:32.574Z,68.50
2023-03-26T23:03:59.520Z,69.17
2023-03-26T23:06:26.512Z,69.08
2023-03-26T23:08:55.407Z,69.68
2023-03-26T23:11:22.703Z,69.44
2023-03-26T23:13:49.837Z,69.71
2023-03-26T23:16:17.045Z,69.97
2023-03-26T23:18:44.707Z,70.07
2023-03-26T23:21:16.067Z,70.10
2023-03-26T23:23:43.253Z,70.07
2023-03-26T23:26:10.389Z,69.64
2023-03-26T23:28:37.844Z,69.32
2023-03-26T23:31:06.084Z,70.30
2023-03-26T23:33:34.843Z,69.16
2023-03-26T23:36:03.672Z,69.29
2023-03-26T23:38:44.228Z,69.66
2023-03-26T23:41:15.543Z,70.14
2023-03-26T23:43:53.981Z,71.39
2023-03-26T23:46:23.968Z,71.11
2023-03-26T23:48:51.375Z,71.81
2023-03-26T23:51:21.823Z,71.77
2023-03-26T23:53:48.785Z,71.68
2023-03-26T23:56:15.762Z,72.11
2023-03-26T23:58:42.821Z,72.07
